sensor_id;sensor_type;location;lat;lon;timestamp;P1;durP1;ratioP1;P2;durP2;ratioP2
70840;SDS011;58465;51.534;9.934;2022-11-20T00:00:19;13.52;;;6.63;;
70840;SDS011;58465;51.534;9.934;2022-11-20T00:02:45;13.75;;;6.88;;
70840;SDS011;58465;51.534;9.934;2022-11-20T00:05:10;13.82;;;6.60;;
70840;SDS011;58465;51.534;9.934;2022-11-20T00:07:35;14.02;;;7.75;;
70840;SDS011;58465;51.534;9.934;2022-11-20T00:10:00;19.40;;;8.75;;
70840;SDS011;58465;51.534;9.934;2022-11-20T00:12:26;18.42;;;8.60;;
70840;SDS011;58465;51.534;9.934;2022-11-20T00:14:51;20.17;;;8.63;;
70840;SDS011;58465;51.534;9.934;2022-11-20T00:17:17;20.05;;;8.38;;
70840;SDS011;58465;51.534;9.934;2022-11-20T00:19:42;18.02;;;7.90;;
70840;SDS011;58465;51.534;9.934;2022-11-20T00:22:07;16.42;;;7.65;;
70840;SDS011;58465;51.534;9.934;2022-11-20T00:24:33;18.13;;;8.02;;
70840;SDS011;58465;51.534;9.934;2022-11-20T00:26:58;14.48;;;7.90;;
70840;SDS011;58465;51.534;9.934;2022-11-20T00:29:23;17.35;;;8.25;;
70840;SDS011;58465;51.534;9.934;2022-11-20T00:31:48;13.68;;;6.50;;
70840;SDS011;58465;51.534;9.934;2022-11-20T00:34:14;19.27;;;8.10;;
70840;SDS011;58465;51.534;9.934;2022-11-20T00:36:39;15.98;;;7.93;;
70840;SDS011;58465;51.534;9.934;2022-11-20T00:39:04;26.45;;;8.65;;
70840;SDS011;58465;51.534;9.934;2022-11-20T00:41:30;20.52;;;9.80;;
70840;SDS011;58465;51.534;9.934;2022-11-20T00:43:55;18.00;;;8.45;;
70840;SDS011;58465;51.534;9.934;2022-11-20T00:46:22;12.80;;;7.00;;
70840;SDS011;58465;51.534;9.934;2022-11-20T00:48:49;14.80;;;7.00;;
70840;SDS011;58465;51.534;9.934;2022-11-20T00:51:16;16.42;;;7.38;;
70840;SDS011;58465;51.534;9.934;2022-11-20T00:53:43;15.38;;;7.43;;
70840;SDS011;58465;51.534;9.934;2022-11-20T00:56:15;15.55;;;7.85;;
70840;SDS011;58465;51.534;9.934;2022-11-20T00:58:42;14.15;;;6.90;;
70840;SDS011;58465;51.534;9.934;2022-11-20T01:01:10;13.32;;;6.88;;
70840;SDS011;58465;51.534;9.934;2022-11-20T01:03:40;13.55;;;7.03;;
70840;SDS011;58465;51.534;9.934;2022-11-20T01:06:09;14.82;;;7.78;;
70840;SDS011;58465;51.534;9.934;2022-11-20T01:08:37;16.40;;;7.22;;
70840;SDS011;58465;51.534;9.934;2022-11-20T01:11:13;14.00;;;7.32;;
70840;SDS011;58465;51.534;9.934;2022-11-20T01:13:44;14.32;;;6.97;;
70840;SDS011;58465;51.534;9.934;2022-11-20T01:18:38;16.85;;;8.13;;
70840;SDS011;58465;51.534;9.934;2022-11-20T01:21:07;15.25;;;7.35;;
70840;SDS011;58465;51.534;9.934;2022-11-20T01:23:34;14.98;;;7.68;;
70840;SDS011;58465;51.534;9.934;2022-11-20T01:26:01;14.38;;;7.65;;
70840;SDS011;58465;51.534;9.934;2022-11-20T01:28:31;16.35;;;7.55;;
70840;SDS011;58465;51.534;9.934;2022-11-20T01:30:56;17.73;;;7.95;;
70840;SDS011;58465;51.534;9.934;2022-11-20T01:33:22;19.55;;;8.93;;
70840;SDS011;58465;51.534;9.934;2022-11-20T01:35:47;19.95;;;8.25;;
70840;SDS011;58465;51.534;9.934;2022-11-20T01:38:14;21.70;;;8.88;;
70840;SDS011;58465;51.534;9.934;2022-11-20T01:40:40;18.88;;;8.48;;
70840;SDS011;58465;51.534;9.934;2022-11-20T01:43:18;17.75;;;8.02;;
70840;SDS011;58465;51.534;9.934;2022-11-20T01:46:04;16.90;;;7.65;;
70840;SDS011;58465;51.534;9.934;2022-11-20T01:48:51;20.42;;;9.10;;
70840;SDS011;58465;51.534;9.934;2022-11-20T01:51:22;23.88;;;9.55;;
70840;SDS011;58465;51.534;9.934;2022-11-20T01:54:01;25.52;;;9.82;;
70840;SDS011;58465;51.534;9.934;2022-11-20T01:56:30;18.05;;;8.95;;
70840;SDS011;58465;51.534;9.934;2022-11-20T01:58:59;19.60;;;9.10;;
70840;SDS011;58465;51.534;9.934;2022-11-20T02:01:26;19.95;;;8.93;;
70840;SDS011;58465;51.534;9.934;2022-11-20T02:03:52;24.95;;;10.05;;
70840;SDS011;58465;51.534;9.934;2022-11-20T02:06:28;31.17;;;12.23;;
70840;SDS011;58465;51.534;9.934;2022-11-20T02:08:57;22.33;;;9.90;;
70840;SDS011;58465;51.534;9.934;2022-11-20T02:11:23;21.90;;;9.30;;
70840;SDS011;58465;51.534;9.934;2022-11-20T02:13:48;16.67;;;7.90;;
70840;SDS011;58465;51.534;9.934;2022-11-20T02:18:46;15.18;;;7.35;;
70840;SDS011;58465;51.534;9.934;2022-11-20T02:21:24;14.75;;;6.95;;
70840;SDS011;58465;51.534;9.934;2022-11-20T02:24:18;18.35;;;6.53;;
70840;SDS011;58465;51.534;9.934;2022-11-20T02:26:49;16.63;;;6.95;;
70840;SDS011;58465;51.534;9.934;2022-11-20T02:29:20;13.63;;;6.22;;
70840;SDS011;58465;51.534;9.934;2022-11-20T02:31:50;15.68;;;6.85;;
70840;SDS011;58465;51.534;9.934;2022-11-20T02:34:17;15.57;;;7.18;;
70840;SDS011;58465;51.534;9.934;2022-11-20T02:36:42;14.27;;;7.07;;
70840;SDS011;58465;51.534;9.934;2022-11-20T02:39:09;14.27;;;7.30;;
70840;SDS011;58465;51.534;9.934;2022-11-20T02:41:37;14.57;;;6.93;;
70840;SDS011;58465;51.534;9.934;2022-11-20T02:44:02;18.02;;;8.02;;
70840;SDS011;58465;51.534;9.934;2022-11-20T02:46:28;20.08;;;6.93;;
70840;SDS011;58465;51.534;9.934;2022-11-20T02:48:54;15.00;;;6.78;;
70840;SDS011;58465;51.534;9.934;2022-11-20T02:51:19;14.68;;;6.85;;
70840;SDS011;58465;51.534;9.934;2022-11-20T02:53:44;14.45;;;7.07;;
70840;SDS011;58465;51.534;9.934;2022-11-20T02:56:10;15.77;;;8.00;;
70840;SDS011;58465;51.534;9.934;2022-11-20T02:58:35;14.68;;;7.53;;
70840;SDS011;58465;51.534;9.934;2022-11-20T03:01:00;12.27;;;6.45;;
70840;SDS011;58465;51.534;9.934;2022-11-20T03:03:25;12.48;;;5.95;;
70840;SDS011;58465;51.534;9.934;2022-11-20T03:05:51;14.10;;;6.70;;
70840;SDS011;58465;51.534;9.934;2022-11-20T03:08:16;13.23;;;6.38;;
70840;SDS011;58465;51.534;9.934;2022-11-20T03:10:41;16.25;;;6.90;;
70840;SDS011;58465;51.534;9.934;2022-11-20T03:13:06;17.77;;;8.00;;
70840;SDS011;58465;51.534;9.934;2022-11-20T03:15:32;15.00;;;7.47;;
70840;SDS011;58465;51.534;9.934;2022-11-20T03:17:57;13.65;;;6.78;;
70840;SDS011;58465;51.534;9.934;2022-11-20T03:20:22;18.92;;;7.57;;
70840;SDS011;58465;51.534;9.934;2022-11-20T03:22:48;15.80;;;7.32;;
70840;SDS011;58465;51.534;9.934;2022-11-20T03:25:13;13.32;;;6.75;;
70840;SDS011;58465;51.534;9.934;2022-11-20T03:27:38;15.02;;;8.27;;
70840;SDS011;58465;51.534;9.934;2022-11-20T03:30:04;18.02;;;7.90;;
70840;SDS011;58465;51.534;9.934;2022-11-20T03:32:30;14.35;;;7.07;;
70840;SDS011;58465;51.534;9.934;2022-11-20T03:34:56;14.13;;;6.47;;
70840;SDS011;58465;51.534;9.934;2022-11-20T03:37:21;15.18;;;6.78;;
70840;SDS011;58465;51.534;9.934;2022-11-20T03:39:46;15.50;;;6.85;;
70840;SDS011;58465;51.534;9.934;2022-11-20T03:42:11;16.63;;;6.80;;
70840;SDS011;58465;51.534;9.934;2022-11-20T03:45:09;16.67;;;7.40;;
70840;SDS011;58465;51.534;9.934;2022-11-20T03:47:34;17.77;;;7.15;;
70840;SDS011;58465;51.534;9.934;2022-11-20T03:49:59;13.48;;;6.78;;
70840;SDS011;58465;51.534;9.934;2022-11-20T03:52:25;15.15;;;7.25;;
70840;SDS011;58465;51.534;9.934;2022-11-20T03:54:50;16.98;;;7.80;;
70840;SDS011;58465;51.534;9.934;2022-11-20T03:57:15;16.88;;;7.18;;
70840;SDS011;58465;51.534;9.934;2022-11-20T03:59:40;15.85;;;7.10;;
70840;SDS011;58465;51.534;9.934;2022-11-20T04:02:06;17.08;;;7.25;;
70840;SDS011;58465;51.534;9.934;2022-11-20T04:04:31;15.38;;;7.68;;
70840;SDS011;58465;51.534;9.934;2022-11-20T04:06:56;16.90;;;7.40;;
70840;SDS011;58465;51.534;9.934;2022-11-20T04:09:21;14.93;;;7.47;;
70840;SDS011;58465;51.534;9.934;2022-11-20T04:11:47;12.57;;;6.88;;
70840;SDS011;58465;51.534;9.934;2022-11-20T04:14:13;12.52;;;6.95;;
70840;SDS011;58465;51.534;9.934;2022-11-20T04:16:39;13.48;;;7.30;;
70840;SDS011;58465;51.534;9.934;2022-11-20T04:19:05;15.52;;;7.22;;
70840;SDS011;58465;51.534;9.934;2022-11-20T04:21:34;12.45;;;6.70;;
70840;SDS011;58465;51.534;9.934;2022-11-20T04:23:59;18.17;;;7.82;;
70840;SDS011;58465;51.534;9.934;2022-11-20T04:26:25;15.93;;;7.80;;
70840;SDS011;58465;51.534;9.934;2022-11-20T04:28:52;19.00;;;8.70;;
70840;SDS011;58465;51.534;9.934;2022-11-20T04:31:20;17.38;;;7.63;;
70840;SDS011;58465;51.534;9.934;2022-11-20T04:33:46;18.52;;;7.68;;
70840;SDS011;58465;51.534;9.934;2022-11-20T04:36:13;13.90;;;6.65;;
70840;SDS011;58465;51.534;9.934;2022-11-20T04:38:40;15.63;;;7.10;;
70840;SDS011;58465;51.534;9.934;2022-11-20T04:41:07;18.38;;;7.97;;
70840;SDS011;58465;51.534;9.934;2022-11-20T04:43:37;16.83;;;7.53;;
70840;SDS011;58465;51.534;9.934;2022-11-20T04:46:02;14.50;;;7.22;;
70840;SDS011;58465;51.534;9.934;2022-11-20T04:48:28;18.38;;;8.05;;
70840;SDS011;58465;51.534;9.934;2022-11-20T04:50:54;18.10;;;8.05;;
70840;SDS011;58465;51.534;9.934;2022-11-20T04:53:20;17.05;;;8.10;;
70840;SDS011;58465;51.534;9.934;2022-11-20T04:55:46;15.43;;;8.32;;
70840;SDS011;58465;51.534;9.934;2022-11-20T04:58:12;14.10;;;7.13;;
70840;SDS011;58465;51.534;9.934;2022-11-20T05:00:38;15.30;;;7.20;;
70840;SDS011;58465;51.534;9.934;2022-11-20T05:03:03;15.80;;;6.85;;
70840;SDS011;58465;51.534;9.934;2022-11-20T05:05:28;17.67;;;7.75;;
70840;SDS011;58465;51.534;9.934;2022-11-20T05:07:57;15.25;;;7.40;;
70840;SDS011;58465;51.534;9.934;2022-11-20T05:10:23;18.00;;;8.60;;
70840;SDS011;58465;51.534;9.934;2022-11-20T05:12:49;16.75;;;7.22;;
70840;SDS011;58465;51.534;9.934;2022-11-20T05:15:14;19.02;;;8.15;;
70840;SDS011;58465;51.534;9.934;2022-11-20T05:17:40;15.13;;;6.85;;
70840;SDS011;58465;51.534;9.934;2022-11-20T05:20:05;14.32;;;6.97;;
70840;SDS011;58465;51.534;9.934;2022-11-20T05:22:31;18.35;;;7.60;;
70840;SDS011;58465;51.534;9.934;2022-11-20T05:24:56;13.85;;;7.15;;
70840;SDS011;58465;51.534;9.934;2022-11-20T05:27:21;19.13;;;8.05;;
70840;SDS011;58465;51.534;9.934;2022-11-20T05:29:47;13.68;;;6.57;;
70840;SDS011;58465;51.534;9.934;2022-11-20T05:32:12;17.15;;;7.18;;
70840;SDS011;58465;51.534;9.934;2022-11-20T05:34:37;12.82;;;7.47;;
70840;SDS011;58465;51.534;9.934;2022-11-20T05:37:02;16.25;;;7.05;;
70840;SDS011;58465;51.534;9.934;2022-11-20T05:39:28;16.60;;;7.78;;
70840;SDS011;58465;51.534;9.934;2022-11-20T05:41:53;16.58;;;8.23;;
70840;SDS011;58465;51.534;9.934;2022-11-20T05:44:39;16.85;;;7.03;;
70840;SDS011;58465;51.534;9.934;2022-11-20T05:47:04;18.88;;;8.30;;
70840;SDS011;58465;51.534;9.934;2022-11-20T05:49:30;17.55;;;6.78;;
70840;SDS011;58465;51.534;9.934;2022-11-20T05:51:55;18.25;;;7.97;;
70840;SDS011;58465;51.534;9.934;2022-11-20T05:54:21;18.75;;;7.97;;
70840;SDS011;58465;51.534;9.934;2022-11-20T05:56:46;19.65;;;8.50;;
70840;SDS011;58465;51.534;9.934;2022-11-20T05:59:11;21.45;;;8.80;;
70840;SDS011;58465;51.534;9.934;2022-11-20T06:01:36;17.30;;;8.48;;
70840;SDS011;58465;51.534;9.934;2022-11-20T06:04:02;18.05;;;8.18;;
70840;SDS011;58465;51.534;9.934;2022-11-20T06:06:27;19.58;;;7.50;;
70840;SDS011;58465;51.534;9.934;2022-11-20T06:08:52;17.77;;;8.57;;
70840;SDS011;58465;51.534;9.934;2022-11-20T06:11:19;20.75;;;8.98;;
70840;SDS011;58465;51.534;9.934;2022-11-20T06:13:45;16.50;;;6.85;;
70840;SDS011;58465;51.534;9.934;2022-11-20T06:16:11;16.83;;;7.95;;
70840;SDS011;58465;51.534;9.934;2022-11-20T06:18:39;19.25;;;8.48;;
70840;SDS011;58465;51.534;9.934;2022-11-20T06:21:05;23.65;;;8.98;;
70840;SDS011;58465;51.534;9.934;2022-11-20T06:23:32;21.27;;;8.07;;
70840;SDS011;58465;51.534;9.934;2022-11-20T06:26:02;18.65;;;7.55;;
70840;SDS011;58465;51.534;9.934;2022-11-20T06:28:29;20.15;;;8.93;;
70840;SDS011;58465;51.534;9.934;2022-11-20T06:30:55;18.52;;;8.00;;
70840;SDS011;58465;51.534;9.934;2022-11-20T06:33:20;19.52;;;8.75;;
70840;SDS011;58465;51.534;9.934;2022-11-20T06:35:46;19.85;;;8.80;;
70840;SDS011;58465;51.534;9.934;2022-11-20T06:38:11;21.80;;;8.73;;
70840;SDS011;58465;51.534;9.934;2022-11-20T06:40:39;17.70;;;7.55;;
70840;SDS011;58465;51.534;9.934;2022-11-20T06:43:05;20.55;;;8.50;;
70840;SDS011;58465;51.534;9.934;2022-11-20T06:45:30;15.90;;;7.35;;
70840;SDS011;58465;51.534;9.934;2022-11-20T06:47:56;17.05;;;7.53;;
70840;SDS011;58465;51.534;9.934;2022-11-20T06:50:22;18.42;;;7.93;;
70840;SDS011;58465;51.534;9.934;2022-11-20T06:52:47;17.45;;;7.80;;
70840;SDS011;58465;51.534;9.934;2022-11-20T06:55:13;18.10;;;8.02;;
70840;SDS011;58465;51.534;9.934;2022-11-20T06:57:38;16.20;;;8.20;;
70840;SDS011;58465;51.534;9.934;2022-11-20T07:00:03;19.73;;;8.65;;
70840;SDS011;58465;51.534;9.934;2022-11-20T07:02:29;15.02;;;7.10;;
70840;SDS011;58465;51.534;9.934;2022-11-20T07:04:54;13.38;;;7.45;;
70840;SDS011;58465;51.534;9.934;2022-11-20T07:07:19;17.92;;;7.93;;
70840;SDS011;58465;51.534;9.934;2022-11-20T07:09:45;18.92;;;8.52;;
70840;SDS011;58465;51.534;9.934;2022-11-20T07:12:10;18.13;;;9.32;;
70840;SDS011;58465;51.534;9.934;2022-11-20T07:14:35;16.92;;;7.57;;
70840;SDS011;58465;51.534;9.934;2022-11-20T07:17:00;17.73;;;8.32;;
70840;SDS011;58465;51.534;9.934;2022-11-20T07:19:26;18.13;;;8.20;;
70840;SDS011;58465;51.534;9.934;2022-11-20T07:21:51;17.77;;;8.30;;
70840;SDS011;58465;51.534;9.934;2022-11-20T07:24:16;15.52;;;7.70;;
70840;SDS011;58465;51.534;9.934;2022-11-20T07:26:42;18.83;;;8.77;;
70840;SDS011;58465;51.534;9.934;2022-11-20T07:29:07;16.25;;;7.65;;
70840;SDS011;58465;51.534;9.934;2022-11-20T07:31:32;19.95;;;8.93;;
70840;SDS011;58465;51.534;9.934;2022-11-20T07:33:58;18.23;;;8.90;;
70840;SDS011;58465;51.534;9.934;2022-11-20T07:36:23;19.48;;;8.68;;
70840;SDS011;58465;51.534;9.934;2022-11-20T07:38:49;22.98;;;8.20;;
70840;SDS011;58465;51.534;9.934;2022-11-20T07:41:14;18.10;;;8.73;;
70840;SDS011;58465;51.534;9.934;2022-11-20T07:43:39;18.30;;;7.93;;
70840;SDS011;58465;51.534;9.934;2022-11-20T07:46:05;19.08;;;8.23;;
70840;SDS011;58465;51.534;9.934;2022-11-20T07:48:30;20.77;;;8.70;;
70840;SDS011;58465;51.534;9.934;2022-11-20T07:50:55;18.98;;;8.57;;
70840;SDS011;58465;51.534;9.934;2022-11-20T07:53:22;18.40;;;8.57;;
70840;SDS011;58465;51.534;9.934;2022-11-20T07:55:48;18.17;;;7.88;;
70840;SDS011;58465;51.534;9.934;2022-11-20T07:58:13;18.30;;;8.38;;
70840;SDS011;58465;51.534;9.934;2022-11-20T08:00:39;17.92;;;7.43;;
70840;SDS011;58465;51.534;9.934;2022-11-20T08:03:05;21.40;;;9.40;;
70840;SDS011;58465;51.534;9.934;2022-11-20T08:05:31;19.50;;;8.40;;
70840;SDS011;58465;51.534;9.934;2022-11-20T08:07:56;22.20;;;8.90;;
70840;SDS011;58465;51.534;9.934;2022-11-20T08:10:22;20.40;;;7.05;;
70840;SDS011;58465;51.534;9.934;2022-11-20T08:12:51;15.13;;;7.15;;
70840;SDS011;58465;51.534;9.934;2022-11-20T08:15:36;9.98;;;5.15;;
70840;SDS011;58465;51.534;9.934;2022-11-20T08:18:06;12.93;;;5.93;;
70840;SDS011;58465;51.534;9.934;2022-11-20T08:20:36;13.07;;;6.05;;
70840;SDS011;58465;51.534;9.934;2022-11-20T08:23:05;12.63;;;6.03;;
70840;SDS011;58465;51.534;9.934;2022-11-20T08:25:33;12.63;;;4.95;;
70840;SDS011;58465;51.534;9.934;2022-11-20T08:28:00;13.57;;;5.97;;
70840;SDS011;58465;51.534;9.934;2022-11-20T08:30:27;14.68;;;6.60;;
70840;SDS011;58465;51.534;9.934;2022-11-20T08:32:53;12.57;;;5.70;;
70840;SDS011;58465;51.534;9.934;2022-11-20T08:35:19;20.27;;;6.43;;
70840;SDS011;58465;51.534;9.934;2022-11-20T08:37:46;12.63;;;6.45;;
70840;SDS011;58465;51.534;9.934;2022-11-20T08:40:11;15.25;;;6.40;;
70840;SDS011;58465;51.534;9.934;2022-11-20T08:42:45;13.10;;;6.63;;
70840;SDS011;58465;51.534;9.934;2022-11-20T08:45:11;16.58;;;7.40;;
70840;SDS011;58465;51.534;9.934;2022-11-20T08:47:36;16.05;;;7.38;;
70840;SDS011;58465;51.534;9.934;2022-11-20T08:50:01;16.70;;;7.82;;
70840;SDS011;58465;51.534;9.934;2022-11-20T08:52:27;16.13;;;6.97;;
70840;SDS011;58465;51.534;9.934;2022-11-20T08:54:53;15.27;;;6.47;;
70840;SDS011;58465;51.534;9.934;2022-11-20T08:57:18;17.73;;;6.25;;
70840;SDS011;58465;51.534;9.934;2022-11-20T08:59:43;14.05;;;6.32;;
70840;SDS011;58465;51.534;9.934;2022-11-20T09:02:08;13.30;;;6.22;;
70840;SDS011;58465;51.534;9.934;2022-11-20T09:04:34;15.52;;;6.40;;
70840;SDS011;58465;51.534;9.934;2022-11-20T09:07:00;17.30;;;6.70;;
70840;SDS011;58465;51.534;9.934;2022-11-20T09:09:25;16.45;;;7.25;;
70840;SDS011;58465;51.534;9.934;2022-11-20T09:11:50;16.85;;;7.22;;
70840;SDS011;58465;51.534;9.934;2022-11-20T09:14:16;14.80;;;6.63;;
70840;SDS011;58465;51.534;9.934;2022-11-20T09:16:41;17.70;;;7.53;;
70840;SDS011;58465;51.534;9.934;2022-11-20T09:19:06;16.27;;;6.60;;
70840;SDS011;58465;51.534;9.934;2022-11-20T09:21:32;15.23;;;6.50;;
70840;SDS011;58465;51.534;9.934;2022-11-20T09:23:57;16.15;;;6.80;;
70840;SDS011;58465;51.534;9.934;2022-11-20T09:26:22;17.65;;;6.75;;
70840;SDS011;58465;51.534;9.934;2022-11-20T09:28:47;15.02;;;6.63;;
70840;SDS011;58465;51.534;9.934;2022-11-20T09:31:23;19.98;;;7.53;;
70840;SDS011;58465;51.534;9.934;2022-11-20T09:33:50;13.20;;;5.38;;
70840;SDS011;58465;51.534;9.934;2022-11-20T09:36:15;14.00;;;6.50;;
70840;SDS011;58465;51.534;9.934;2022-11-20T09:38:43;17.40;;;7.47;;
70840;SDS011;58465;51.534;9.934;2022-11-20T09:43:58;17.77;;;7.50;;
70840;SDS011;58465;51.534;9.934;2022-11-20T09:46:28;14.15;;;7.28;;
70840;SDS011;58465;51.534;9.934;2022-11-20T09:49:09;16.52;;;7.40;;
70840;SDS011;58465;51.534;9.934;2022-11-20T09:52:03;17.17;;;7.97;;
70840;SDS011;58465;51.534;9.934;2022-11-20T09:54:51;16.83;;;7.75;;
70840;SDS011;58465;51.534;9.934;2022-11-20T09:57:20;16.00;;;7.53;;
70840;SDS011;58465;51.534;9.934;2022-11-20T09:59:51;14.95;;;6.53;;
70840;SDS011;58465;51.534;9.934;2022-11-20T10:05:10;17.05;;;6.60;;
70840;SDS011;58465;51.534;9.934;2022-11-20T10:07:44;19.42;;;8.00;;
70840;SDS011;58465;51.534;9.934;2022-11-20T10:10:31;14.07;;;6.95;;
70840;SDS011;58465;51.534;9.934;2022-11-20T10:13:11;14.27;;;6.47;;
70840;SDS011;58465;51.534;9.934;2022-11-20T10:15:58;17.33;;;7.60;;
70840;SDS011;58465;51.534;9.934;2022-11-20T10:21:35;15.48;;;6.70;;
70840;SDS011;58465;51.534;9.934;2022-11-20T10:24:24;16.85;;;8.27;;
70840;SDS011;58465;51.534;9.934;2022-11-20T10:27:38;20.02;;;8.48;;
70840;SDS011;58465;51.534;9.934;2022-11-20T10:29:59;17.38;;;7.93;;
70840;SDS011;58465;51.534;9.934;2022-11-20T10:33:04;15.15;;;7.30;;
70840;SDS011;58465;51.534;9.934;2022-11-20T10:38:17;15.10;;;7.10;;
70840;SDS011;58465;51.534;9.934;2022-11-20T10:40:52;14.50;;;6.72;;
70840;SDS011;58465;51.534;9.934;2022-11-20T10:43:40;17.35;;;7.63;;
70840;SDS011;58465;51.534;9.934;2022-11-20T10:46:08;17.13;;;7.50;;
70840;SDS011;58465;51.534;9.934;2022-11-20T10:48:42;18.35;;;6.38;;
70840;SDS011;58465;51.534;9.934;2022-11-20T10:51:11;16.13;;;6.47;;
70840;SDS011;58465;51.534;9.934;2022-11-20T10:54:09;16.17;;;6.38;;
70840;SDS011;58465;51.534;9.934;2022-11-20T10:56:46;15.27;;;7.07;;
70840;SDS011;58465;51.534;9.934;2022-11-20T11:02:23;15.50;;;6.70;;
70840;SDS011;58465;51.534;9.934;2022-11-20T11:04:56;18.67;;;8.35;;
70840;SDS011;58465;51.534;9.934;2022-11-20T11:07:23;18.30;;;8.40;;
70840;SDS011;58465;51.534;9.934;2022-11-20T11:09:55;16.75;;;7.90;;
70840;SDS011;58465;51.534;9.934;2022-11-20T11:12:22;14.90;;;6.78;;
70840;SDS011;58465;51.534;9.934;2022-11-20T11:14:51;21.77;;;8.43;;
70840;SDS011;58465;51.534;9.934;2022-11-20T11:17:31;16.83;;;8.13;;
70840;SDS011;58465;51.534;9.934;2022-11-20T11:20:02;17.15;;;8.15;;
70840;SDS011;58465;51.534;9.934;2022-11-20T11:22:28;16.85;;;7.95;;
70840;SDS011;58465;51.534;9.934;2022-11-20T11:24:55;15.82;;;7.75;;
70840;SDS011;58465;51.534;9.934;2022-11-20T11:27:20;17.92;;;8.45;;
70840;SDS011;58465;51.534;9.934;2022-11-20T11:29:46;17.80;;;7.70;;
70840;SDS011;58465;51.534;9.934;2022-11-20T11:34:38;17.58;;;8.45;;
70840;SDS011;58465;51.534;9.934;2022-11-20T11:37:04;17.35;;;7.72;;
70840;SDS011;58465;51.534;9.934;2022-11-20T11:42:01;18.63;;;7.68;;
70840;SDS011;58465;51.534;9.934;2022-11-20T11:44:28;22.55;;;7.72;;
70840;SDS011;58465;51.534;9.934;2022-11-20T11:47:24;17.58;;;7.97;;
70840;SDS011;58465;51.534;9.934;2022-11-20T11:50:15;16.15;;;7.28;;
70840;SDS011;58465;51.534;9.934;2022-11-20T11:52:44;18.13;;;8.07;;
70840;SDS011;58465;51.534;9.934;2022-11-20T11:58:33;15.45;;;7.03;;
70840;SDS011;58465;51.534;9.934;2022-11-20T12:01:13;14.30;;;7.45;;
70840;SDS011;58465;51.534;9.934;2022-11-20T12:03:42;14.80;;;6.93;;
70840;SDS011;58465;51.534;9.934;2022-11-20T12:06:12;13.65;;;6.72;;
70840;SDS011;58465;51.534;9.934;2022-11-20T12:11:20;15.90;;;6.82;;
70840;SDS011;58465;51.534;9.934;2022-11-20T12:16:49;17.85;;;7.68;;
70840;SDS011;58465;51.534;9.934;2022-11-20T12:19:15;15.43;;;7.32;;
70840;SDS011;58465;51.534;9.934;2022-11-20T12:21:54;16.90;;;8.00;;
70840;SDS011;58465;51.534;9.934;2022-11-20T12:24:35;15.10;;;7.15;;
70840;SDS011;58465;51.534;9.934;2022-11-20T12:27:14;14.98;;;7.40;;
70840;SDS011;58465;51.534;9.934;2022-11-20T12:43:37;16.27;;;6.93;;
70840;SDS011;58465;51.534;9.934;2022-11-20T12:46:37;15.90;;;7.00;;
70840;SDS011;58465;51.534;9.934;2022-11-20T12:49:13;12.23;;;6.38;;
70840;SDS011;58465;51.534;9.934;2022-11-20T12:51:56;12.15;;;6.47;;
70840;SDS011;58465;51.534;9.934;2022-11-20T13:05:34;12.70;;;6.60;;
70840;SDS011;58465;51.534;9.934;2022-11-20T13:08:23;10.73;;;5.50;;
70840;SDS011;58465;51.534;9.934;2022-11-20T13:13:48;10.75;;;5.35;;
70840;SDS011;58465;51.534;9.934;2022-11-20T13:16:33;14.40;;;6.05;;
70840;SDS011;58465;51.534;9.934;2022-11-20T13:19:02;8.65;;;4.78;;
70840;SDS011;58465;51.534;9.934;2022-11-20T13:24:04;10.57;;;5.38;;
70840;SDS011;58465;51.534;9.934;2022-11-20T13:29:19;13.00;;;6.03;;
70840;SDS011;58465;51.534;9.934;2022-11-20T13:31:46;13.55;;;6.22;;
70840;SDS011;58465;51.534;9.934;2022-11-20T13:34:14;10.93;;;5.40;;
70840;SDS011;58465;51.534;9.934;2022-11-20T13:36:49;13.07;;;6.38;;
70840;SDS011;58465;51.534;9.934;2022-11-20T13:39:26;16.20;;;6.95;;
70840;SDS011;58465;51.534;9.934;2022-11-20T13:41:54;15.15;;;6.55;;
70840;SDS011;58465;51.534;9.934;2022-11-20T13:47:03;13.32;;;6.13;;
70840;SDS011;58465;51.534;9.934;2022-11-20T13:49:44;15.02;;;5.53;;
70840;SDS011;58465;51.534;9.934;2022-11-20T13:55:16;14.50;;;6.43;;
70840;SDS011;58465;51.534;9.934;2022-11-20T13:58:04;11.05;;;6.25;;
70840;SDS011;58465;51.534;9.934;2022-11-20T14:00:44;13.25;;;6.20;;
70840;SDS011;58465;51.534;9.934;2022-11-20T14:03:17;11.57;;;5.43;;
70840;SDS011;58465;51.534;9.934;2022-11-20T14:05:49;9.27;;;5.03;;
70840;SDS011;58465;51.534;9.934;2022-11-20T14:08:21;12.25;;;5.80;;
70840;SDS011;58465;51.534;9.934;2022-11-20T14:11:01;9.32;;;4.78;;
70840;SDS011;58465;51.534;9.934;2022-11-20T14:14:30;9.05;;;4.80;;
70840;SDS011;58465;51.534;9.934;2022-11-20T14:16:41;7.88;;;4.35;;
70840;SDS011;58465;51.534;9.934;2022-11-20T14:21:46;7.95;;;4.10;;
70840;SDS011;58465;51.534;9.934;2022-11-20T14:24:12;8.88;;;4.20;;
70840;SDS011;58465;51.534;9.934;2022-11-20T14:26:42;8.73;;;4.15;;
70840;SDS011;58465;51.534;9.934;2022-11-20T14:29:13;9.15;;;4.75;;
70840;SDS011;58465;51.534;9.934;2022-11-20T14:31:46;10.30;;;5.10;;
70840;SDS011;58465;51.534;9.934;2022-11-20T14:34:16;11.90;;;5.43;;
70840;SDS011;58465;51.534;9.934;2022-11-20T14:36:44;10.07;;;4.80;;
70840;SDS011;58465;51.534;9.934;2022-11-20T14:39:11;11.30;;;5.45;;
70840;SDS011;58465;51.534;9.934;2022-11-20T14:41:37;12.30;;;5.78;;
70840;SDS011;58465;51.534;9.934;2022-11-20T14:44:02;11.30;;;5.85;;
70840;SDS011;58465;51.534;9.934;2022-11-20T14:46:29;10.75;;;5.72;;
70840;SDS011;58465;51.534;9.934;2022-11-20T14:48:56;11.38;;;5.78;;
70840;SDS011;58465;51.534;9.934;2022-11-20T14:51:35;12.50;;;5.55;;
70840;SDS011;58465;51.534;9.934;2022-11-20T14:54:16;14.15;;;6.15;;
70840;SDS011;58465;51.534;9.934;2022-11-20T14:56:55;12.75;;;5.97;;
70840;SDS011;58465;51.534;9.934;2022-11-20T14:59:28;12.20;;;5.05;;
70840;SDS011;58465;51.534;9.934;2022-11-20T15:01:58;12.93;;;5.80;;
70840;SDS011;58465;51.534;9.934;2022-11-20T15:04:47;11.32;;;5.85;;
70840;SDS011;58465;51.534;9.934;2022-11-20T15:07:24;11.40;;;6.00;;
70840;SDS011;58465;51.534;9.934;2022-11-20T15:09:59;14.52;;;7.07;;
70840;SDS011;58465;51.534;9.934;2022-11-20T15:12:29;16.33;;;7.22;;
70840;SDS011;58465;51.534;9.934;2022-11-20T15:14:56;14.60;;;7.00;;
70840;SDS011;58465;51.534;9.934;2022-11-20T15:17:22;10.30;;;5.93;;
70840;SDS011;58465;51.534;9.934;2022-11-20T15:19:48;13.52;;;6.47;;
70840;SDS011;58465;51.534;9.934;2022-11-20T15:22:13;13.85;;;6.35;;
70840;SDS011;58465;51.534;9.934;2022-11-20T15:24:39;10.93;;;5.85;;
70840;SDS011;58465;51.534;9.934;2022-11-20T15:27:04;13.13;;;6.65;;
70840;SDS011;58465;51.534;9.934;2022-11-20T15:29:29;14.15;;;7.32;;
70840;SDS011;58465;51.534;9.934;2022-11-20T15:31:55;12.95;;;6.85;;
70840;SDS011;58465;51.534;9.934;2022-11-20T15:34:21;13.38;;;6.13;;
70840;SDS011;58465;51.534;9.934;2022-11-20T15:36:46;12.90;;;6.25;;
70840;SDS011;58465;51.534;9.934;2022-11-20T15:39:12;13.13;;;6.78;;
70840;SDS011;58465;51.534;9.934;2022-11-20T15:41:37;17.40;;;6.95;;
70840;SDS011;58465;51.534;9.934;2022-11-20T15:44:03;20.73;;;8.45;;
70840;SDS011;58465;51.534;9.934;2022-11-20T15:46:30;19.70;;;8.57;;
70840;SDS011;58465;51.534;9.934;2022-11-20T15:49:02;20.58;;;9.57;;
70840;SDS011;58465;51.534;9.934;2022-11-20T15:51:31;31.10;;;11.13;;
70840;SDS011;58465;51.534;9.934;2022-11-20T15:53:59;26.85;;;10.95;;
70840;SDS011;58465;51.534;9.934;2022-11-20T15:56:25;25.10;;;9.88;;
70840;SDS011;58465;51.534;9.934;2022-11-20T15:58:51;24.40;;;10.20;;
70840;SDS011;58465;51.534;9.934;2022-11-20T16:01:17;23.17;;;10.02;;